Ackermanville, Pennsylvania
Current Conditions -  °F | °C
As of 6:51 PM on Sunday 21 Dec 2014 (Local Time) from KABE Reporting Station
Clear Clear  
Wind Chill: 28°   Ceiling: Unl
Heat Index: 28°   Visibility: 10mi
Dew Point: 20°   Wind: 0mph
Humidity: 72%   Direction: NA
Pressure: 30.33"   Gusts: NA
Location:  40.84°N, 75.22°W
Report Text: KABE 212351Z 00000KT 10SM CLR M02/M07 A3033 RMK AO2 SLP276 T10221067 10028 21022 51014
Loading
Personal Weather Stations






























Interactive Weather Map New forecast layout! Learn more

10-Day Weather Forecast

Advertisements
Track Severe Weather on mobile